sensor_id;sensor_type;location;lat;lon;timestamp;pressure;altitude;pressure_sealevel;temperature;humidity
16834;BME280;8533;48.426;10.868;2023-08-20T00:01:28;96504.38;;;22.04;100.00
16834;BME280;8533;48.426;10.868;2023-08-20T00:03:54;96503.41;;;22.00;100.00
16834;BME280;8533;48.426;10.868;2023-08-20T00:06:20;96503.72;;;21.99;100.00
16834;BME280;8533;48.426;10.868;2023-08-20T00:08:46;96486.22;;;21.84;100.00
16834;BME280;8533;48.426;10.868;2023-08-20T00:11:12;96498.81;;;21.92;100.00
16834;BME280;8533;48.426;10.868;2023-08-20T00:13:38;96488.25;;;21.79;100.00
16834;BME280;8533;48.426;10.868;2023-08-20T00:16:04;96485.25;;;21.72;100.00
16834;BME280;8533;48.426;10.868;2023-08-20T00:18:30;96500.50;;;21.80;100.00
16834;BME280;8533;48.426;10.868;2023-08-20T00:20:55;96506.41;;;21.77;100.00
16834;BME280;8533;48.426;10.868;2023-08-20T00:23:21;96502.31;;;21.70;100.00
16834;BME280;8533;48.426;10.868;2023-08-20T00:25:47;96501.34;;;21.66;100.00
16834;BME280;8533;48.426;10.868;2023-08-20T00:28:12;96358.81;;;20.68;100.00
16834;BME280;8533;48.426;10.868;2023-08-20T00:30:38;96495.81;;;21.54;100.00
16834;BME280;8533;48.426;10.868;2023-08-20T00:33:03;96502.84;;;21.50;100.00
16834;BME280;8533;48.426;10.868;2023-08-20T00:35:29;96509.59;;;21.48;100.00
16834;BME280;8533;48.426;10.868;2023-08-20T00:37:54;96520.03;;;21.44;100.00
16834;BME280;8533;48.426;10.868;2023-08-20T00:40:19;96467.75;;;21.17;100.00
16834;BME280;8533;48.426;10.868;2023-08-20T00:42:44;96484.06;;;21.24;100.00
16834;BME280;8533;48.426;10.868;2023-08-20T00:45:10;96515.31;;;21.41;100.00
16834;BME280;8533;48.426;10.868;2023-08-20T00:47:35;96516.88;;;21.42;100.00
16834;BME280;8533;48.426;10.868;2023-08-20T00:50:02;96513.28;;;21.38;100.00
16834;BME280;8533;48.426;10.868;2023-08-20T00:52:31;96514.06;;;21.39;100.00
16834;BME280;8533;48.426;10.868;2023-08-20T00:54:57;96524.56;;;21.44;100.00
16834;BME280;8533;48.426;10.868;2023-08-20T00:57:23;96524.56;;;21.44;100.00
16834;BME280;8533;48.426;10.868;2023-08-20T00:59:48;96502.38;;;21.26;100.00
16834;BME280;8533;48.426;10.868;2023-08-20T01:02:16;96482.84;;;21.08;100.00
16834;BME280;8533;48.426;10.868;2023-08-20T01:04:42;96528.28;;;21.34;100.00
16834;BME280;8533;48.426;10.868;2023-08-20T01:10:18;96533.44;;;21.30;100.00
16834;BME280;8533;48.426;10.868;2023-08-20T01:13:04;96529.50;;;21.28;100.00
16834;BME280;8533;48.426;10.868;2023-08-20T01:15:29;96529.00;;;21.26;100.00
16834;BME280;8533;48.426;10.868;2023-08-20T01:17:54;96532.59;;;21.21;100.00
16834;BME280;8533;48.426;10.868;2023-08-20T01:20:22;96530.00;;;21.16;100.00
16834;BME280;8533;48.426;10.868;2023-08-20T01:25:37;96507.19;;;20.79;100.00
16834;BME280;8533;48.426;10.868;2023-08-20T01:30:50;96538.81;;;20.81;100.00
16834;BME280;8533;48.426;10.868;2023-08-20T01:33:16;96540.00;;;20.75;100.00
16834;BME280;8533;48.426;10.868;2023-08-20T01:35:41;96536.66;;;20.69;100.00
16834;BME280;8533;48.426;10.868;2023-08-20T01:38:06;96528.81;;;20.64;100.00
16834;BME280;8533;48.426;10.868;2023-08-20T01:40:33;96532.34;;;20.60;100.00
16834;BME280;8533;48.426;10.868;2023-08-20T01:42:58;96530.59;;;20.55;100.00
16834;BME280;8533;48.426;10.868;2023-08-20T01:45:23;96533.84;;;20.52;100.00
16834;BME280;8533;48.426;10.868;2023-08-20T01:47:49;96529.31;;;20.52;100.00
16834;BME280;8533;48.426;10.868;2023-08-20T01:50:14;96528.06;;;20.50;100.00
16834;BME280;8533;48.426;10.868;2023-08-20T01:52:40;96533.97;;;20.47;100.00
16834;BME280;8533;48.426;10.868;2023-08-20T01:55:05;96536.13;;;20.45;100.00
16834;BME280;8533;48.426;10.868;2023-08-20T01:57:31;96532.22;;;20.42;100.00
16834;BME280;8533;48.426;10.868;2023-08-20T01:59:57;96539.69;;;20.40;100.00
16834;BME280;8533;48.426;10.868;2023-08-20T02:02:23;96542.75;;;20.34;100.00
16834;BME280;8533;48.426;10.868;2023-08-20T02:04:48;96540.09;;;20.34;100.00
16834;BME280;8533;48.426;10.868;2023-08-20T02:07:14;96539.69;;;20.40;100.00
16834;BME280;8533;48.426;10.868;2023-08-20T02:09:39;96547.94;;;20.39;100.00
16834;BME280;8533;48.426;10.868;2023-08-20T02:12:04;96552.47;;;20.38;100.00
16834;BME280;8533;48.426;10.868;2023-08-20T02:14:30;96550.09;;;20.37;100.00
16834;BME280;8533;48.426;10.868;2023-08-20T02:16:59;96525.97;;;20.19;100.00
16834;BME280;8533;48.426;10.868;2023-08-20T02:19:25;96536.03;;;20.23;100.00
16834;BME280;8533;48.426;10.868;2023-08-20T02:21:50;96538.19;;;20.20;100.00
16834;BME280;8533;48.426;10.868;2023-08-20T02:24:15;96538.88;;;20.26;100.00
16834;BME280;8533;48.426;10.868;2023-08-20T02:26:40;96549.81;;;20.25;100.00
16834;BME280;8533;48.426;10.868;2023-08-20T02:29:06;96544.56;;;20.19;100.00
16834;BME280;8533;48.426;10.868;2023-08-20T02:31:31;96544.69;;;20.14;100.00
16834;BME280;8533;48.426;10.868;2023-08-20T02:33:56;96543.22;;;20.08;100.00
16834;BME280;8533;48.426;10.868;2023-08-20T02:36:22;96547.34;;;20.01;100.00
16834;BME280;8533;48.426;10.868;2023-08-20T02:38:47;96488.41;;;19.58;100.00
16834;BME280;8533;48.426;10.868;2023-08-20T02:41:12;96556.06;;;19.88;100.00
16834;BME280;8533;48.426;10.868;2023-08-20T02:43:37;96548.72;;;19.85;100.00
16834;BME280;8533;48.426;10.868;2023-08-20T02:46:03;96549.88;;;19.78;100.00
16834;BME280;8533;48.426;10.868;2023-08-20T02:48:29;96549.69;;;19.75;100.00
16834;BME280;8533;48.426;10.868;2023-08-20T02:50:54;96553.19;;;19.70;100.00
16834;BME280;8533;48.426;10.868;2023-08-20T02:53:20;96553.78;;;19.67;100.00
16834;BME280;8533;48.426;10.868;2023-08-20T02:55:46;96557.53;;;19.66;100.00
16834;BME280;8533;48.426;10.868;2023-08-20T02:58:11;96553.56;;;19.64;100.00
16834;BME280;8533;48.426;10.868;2023-08-20T03:00:37;96548.88;;;19.61;100.00
16834;BME280;8533;48.426;10.868;2023-08-20T03:03:03;96553.97;;;19.57;100.00
16834;BME280;8533;48.426;10.868;2023-08-20T03:05:34;96556.13;;;19.55;100.00
16834;BME280;8533;48.426;10.868;2023-08-20T03:08:00;96520.47;;;19.29;100.00
16834;BME280;8533;48.426;10.868;2023-08-20T03:10:27;96545.31;;;19.52;100.00
16834;BME280;8533;48.426;10.868;2023-08-20T03:12:52;96542.66;;;19.52;100.00
16834;BME280;8533;48.426;10.868;2023-08-20T03:15:17;96544.25;;;19.53;100.00
16834;BME280;8533;48.426;10.868;2023-08-20T03:17:43;96527.38;;;19.43;100.00
16834;BME280;8533;48.426;10.868;2023-08-20T03:20:08;96545.03;;;19.53;100.00
16834;BME280;8533;48.426;10.868;2023-08-20T03:22:36;96561.75;;;19.54;100.00
16834;BME280;8533;48.426;10.868;2023-08-20T03:25:02;96516.72;;;19.30;100.00
16834;BME280;8533;48.426;10.868;2023-08-20T03:27:27;96510.63;;;19.29;100.00
16834;BME280;8533;48.426;10.868;2023-08-20T03:29:52;96543.63;;;19.56;100.00
16834;BME280;8533;48.426;10.868;2023-08-20T03:32:18;96545.22;;;19.57;100.00
16834;BME280;8533;48.426;10.868;2023-08-20T03:34:43;96526.09;;;19.41;100.00
16834;BME280;8533;48.426;10.868;2023-08-20T03:37:08;96554.75;;;19.58;100.00
16834;BME280;8533;48.426;10.868;2023-08-20T03:39:34;96552.38;;;19.56;100.00
16834;BME280;8533;48.426;10.868;2023-08-20T03:41:59;96522.50;;;19.32;100.00
16834;BME280;8533;48.426;10.868;2023-08-20T03:44:24;96545.31;;;19.52;100.00
16834;BME280;8533;48.426;10.868;2023-08-20T03:46:49;96549.03;;;19.51;100.00
16834;BME280;8533;48.426;10.868;2023-08-20T03:49:15;96548.53;;;19.49;100.00
16834;BME280;8533;48.426;10.868;2023-08-20T03:51:40;96554.13;;;19.47;100.00
16834;BME280;8533;48.426;10.868;2023-08-20T03:54:07;96550.19;;;19.44;100.00
16834;BME280;8533;48.426;10.868;2023-08-20T03:56:33;96554.97;;;19.42;100.00
16834;BME280;8533;48.426;10.868;2023-08-20T03:58:58;96541.22;;;19.40;100.00
16834;BME280;8533;48.426;10.868;2023-08-20T04:01:23;96548.38;;;19.40;100.00
16834;BME280;8533;48.426;10.868;2023-08-20T04:03:48;96502.50;;;19.07;100.00
16834;BME280;8533;48.426;10.868;2023-08-20T04:06:14;96553.00;;;19.34;100.00
16834;BME280;8533;48.426;10.868;2023-08-20T04:08:40;96541.88;;;19.32;100.00
16834;BME280;8533;48.426;10.868;2023-08-20T04:11:05;96554.06;;;19.33;100.00
16834;BME280;8533;48.426;10.868;2023-08-20T04:13:31;96560.94;;;19.34;100.00
16834;BME280;8533;48.426;10.868;2023-08-20T04:15:56;96441.50;;;18.56;100.00
16834;BME280;8533;48.426;10.868;2023-08-20T04:18:22;96566.25;;;19.34;100.00
16834;BME280;8533;48.426;10.868;2023-08-20T04:20:50;96565.47;;;19.34;100.00
16834;BME280;8533;48.426;10.868;2023-08-20T04:23:16;96569.19;;;19.33;100.00
16834;BME280;8533;48.426;10.868;2023-08-20T04:25:41;96574.22;;;19.34;100.00
16834;BME280;8533;48.426;10.868;2023-08-20T04:28:07;96570.41;;;19.40;100.00
16834;BME280;8533;48.426;10.868;2023-08-20T04:30:32;96576.72;;;19.44;100.00
16834;BME280;8533;48.426;10.868;2023-08-20T04:32:59;96573.50;;;19.48;100.00
16834;BME280;8533;48.426;10.868;2023-08-20T04:35:24;96573.00;;;19.46;100.00
16834;BME280;8533;48.426;10.868;2023-08-20T04:37:50;96520.41;;;19.15;100.00
16834;BME280;8533;48.426;10.868;2023-08-20T04:40:15;96571.63;;;19.48;100.00
16834;BME280;8533;48.426;10.868;2023-08-20T04:42:40;96581.44;;;19.48;100.00
16834;BME280;8533;48.426;10.868;2023-08-20T04:45:06;96587.63;;;19.43;100.00
16834;BME280;8533;48.426;10.868;2023-08-20T04:47:32;96571.06;;;19.32;100.00
16834;BME280;8533;48.426;10.868;2023-08-20T04:49:57;96589.25;;;19.39;100.00
16834;BME280;8533;48.426;10.868;2023-08-20T04:52:23;96587.47;;;19.34;100.00
16834;BME280;8533;48.426;10.868;2023-08-20T04:54:48;96595.94;;;19.36;100.00
16834;BME280;8533;48.426;10.868;2023-08-20T04:57:14;96594.88;;;19.37;100.00
16834;BME280;8533;48.426;10.868;2023-08-20T04:59:39;96598.22;;;19.43;100.00
16834;BME280;8533;48.426;10.868;2023-08-20T05:02:04;96613.56;;;19.46;100.00
16834;BME280;8533;48.426;10.868;2023-08-20T05:04:30;96584.34;;;19.46;100.00
16834;BME280;8533;48.426;10.868;2023-08-20T05:06:55;96588.75;;;19.56;100.00
16834;BME280;8533;48.426;10.868;2023-08-20T05:09:21;96519.84;;;19.18;100.00
16834;BME280;8533;48.426;10.868;2023-08-20T05:11:46;96579.94;;;19.60;100.00
16834;BME280;8533;48.426;10.868;2023-08-20T05:14:12;96579.72;;;19.57;100.00
16834;BME280;8533;48.426;10.868;2023-08-20T05:16:37;96569.09;;;19.57;100.00
16834;BME280;8533;48.426;10.868;2023-08-20T05:19:02;96584.84;;;19.67;100.00
16834;BME280;8533;48.426;10.868;2023-08-20T05:21:27;96596.97;;;19.73;100.00
16834;BME280;8533;48.426;10.868;2023-08-20T05:23:53;96602.97;;;19.78;100.00
16834;BME280;8533;48.426;10.868;2023-08-20T05:26:18;96599.44;;;19.83;100.00
16834;BME280;8533;48.426;10.868;2023-08-20T05:28:43;96593.56;;;19.86;100.00
16834;BME280;8533;48.426;10.868;2023-08-20T05:31:09;96591.59;;;19.92;100.00
16834;BME280;8533;48.426;10.868;2023-08-20T05:33:35;96582.34;;;19.89;100.00
16834;BME280;8533;48.426;10.868;2023-08-20T05:36:01;96590.31;;;20.03;100.00
16834;BME280;8533;48.426;10.868;2023-08-20T05:38:26;96596.34;;;20.08;100.00
16834;BME280;8533;48.426;10.868;2023-08-20T05:40:51;96601.75;;;20.17;100.00
16834;BME280;8533;48.426;10.868;2023-08-20T05:43:16;96593.91;;;20.26;100.00
16834;BME280;8533;48.426;10.868;2023-08-20T05:45:42;96603.53;;;20.35;100.00
16834;BME280;8533;48.426;10.868;2023-08-20T05:48:07;96597.53;;;20.43;100.00
16834;BME280;8533;48.426;10.868;2023-08-20T05:50:32;96565.63;;;20.30;100.00
16834;BME280;8533;48.426;10.868;2023-08-20T05:52:58;96596.16;;;20.60;100.00
16834;BME280;8533;48.426;10.868;2023-08-20T05:55:23;96594.97;;;20.66;100.00
16834;BME280;8533;48.426;10.868;2023-08-20T05:57:49;96596.16;;;20.73;100.00
16834;BME280;8533;48.426;10.868;2023-08-20T06:00:14;96600.06;;;20.76;100.00
16834;BME280;8533;48.426;10.868;2023-08-20T06:02:40;96594.25;;;20.87;100.00
16834;BME280;8533;48.426;10.868;2023-08-20T06:05:06;96604.97;;;20.96;100.00
16834;BME280;8533;48.426;10.868;2023-08-20T06:07:31;96598.22;;;21.12;100.00
16834;BME280;8533;48.426;10.868;2023-08-20T06:09:56;96607.88;;;21.22;100.00
16834;BME280;8533;48.426;10.868;2023-08-20T06:12:23;96574.88;;;21.09;100.00
16834;BME280;8533;48.426;10.868;2023-08-20T06:14:48;96605.34;;;21.39;100.00
16834;BME280;8533;48.426;10.868;2023-08-20T06:17:13;96602.63;;;21.53;100.00
16834;BME280;8533;48.426;10.868;2023-08-20T06:19:39;96616.53;;;21.72;100.00
16834;BME280;8533;48.426;10.868;2023-08-20T06:22:04;96623.31;;;21.78;100.00
16834;BME280;8533;48.426;10.868;2023-08-20T06:24:29;96604.81;;;21.82;100.00
16834;BME280;8533;48.426;10.868;2023-08-20T06:26:55;96619.06;;;21.99;100.00
16834;BME280;8533;48.426;10.868;2023-08-20T06:29:20;96622.75;;;22.12;100.00
16834;BME280;8533;48.426;10.868;2023-08-20T06:31:47;96619.34;;;22.20;100.00
16834;BME280;8533;48.426;10.868;2023-08-20T06:34:12;96622.69;;;22.34;100.00
16834;BME280;8533;48.426;10.868;2023-08-20T06:36:38;96630.06;;;22.46;100.00
16834;BME280;8533;48.426;10.868;2023-08-20T06:39:03;96619.13;;;22.56;100.00
16834;BME280;8533;48.426;10.868;2023-08-20T06:41:29;96627.34;;;22.68;100.00
16834;BME280;8533;48.426;10.868;2023-08-20T06:43:54;96624.38;;;22.78;100.00
16834;BME280;8533;48.426;10.868;2023-08-20T06:46:19;96634.78;;;22.89;100.00
16834;BME280;8533;48.426;10.868;2023-08-20T06:48:44;96632.28;;;23.01;100.00
16834;BME280;8533;48.426;10.868;2023-08-20T06:51:14;96627.41;;;23.11;100.00
16834;BME280;8533;48.426;10.868;2023-08-20T06:53:40;96633.56;;;23.20;100.00
16834;BME280;8533;48.426;10.868;2023-08-20T06:56:07;96635.44;;;23.29;100.00
16834;BME280;8533;48.426;10.868;2023-08-20T06:58:33;96632.94;;;23.41;100.00
16834;BME280;8533;48.426;10.868;2023-08-20T07:00:58;96634.69;;;23.54;100.00
16834;BME280;8533;48.426;10.868;2023-08-20T07:03:33;96625.41;;;23.60;100.00
16834;BME280;8533;48.426;10.868;2023-08-20T07:05:59;96475.00;;;22.70;100.00
16834;BME280;8533;48.426;10.868;2023-08-20T07:08:24;96634.47;;;23.85;100.00
16834;BME280;8533;48.426;10.868;2023-08-20T07:10:49;96636.19;;;23.98;100.00
16834;BME280;8533;48.426;10.868;2023-08-20T07:13:15;96634.28;;;24.07;100.00
16834;BME280;8533;48.426;10.868;2023-08-20T07:15:40;96618.22;;;24.16;100.00
16834;BME280;8533;48.426;10.868;2023-08-20T07:18:05;96621.19;;;24.31;100.00
16834;BME280;8533;48.426;10.868;2023-08-20T07:20:31;96619.06;;;24.46;99.50
16834;BME280;8533;48.426;10.868;2023-08-20T07:22:56;96617.72;;;24.60;98.19
16834;BME280;8533;48.426;10.868;2023-08-20T07:25:21;96619.22;;;24.79;96.76
16834;BME280;8533;48.426;10.868;2023-08-20T07:27:46;96624.03;;;24.94;95.16
16834;BME280;8533;48.426;10.868;2023-08-20T07:30:12;96576.06;;;24.80;94.73
16834;BME280;8533;48.426;10.868;2023-08-20T07:32:37;96618.59;;;25.23;94.02
16834;BME280;8533;48.426;10.868;2023-08-20T07:35:03;96623.72;;;25.37;94.94
16834;BME280;8533;48.426;10.868;2023-08-20T07:37:28;96615.72;;;25.49;90.01
16834;BME280;8533;48.426;10.868;2023-08-20T07:39:53;96614.25;;;25.60;90.42
16834;BME280;8533;48.426;10.868;2023-08-20T07:42:19;96624.19;;;25.60;92.08
16834;BME280;8533;48.426;10.868;2023-08-20T07:44:44;96627.91;;;25.79;91.95
16834;BME280;8533;48.426;10.868;2023-08-20T07:47:09;96617.16;;;26.00;84.95
16834;BME280;8533;48.426;10.868;2023-08-20T07:49:35;96636.47;;;26.27;83.75
16834;BME280;8533;48.426;10.868;2023-08-20T07:52:00;96638.47;;;26.54;82.48
16834;BME280;8533;48.426;10.868;2023-08-20T07:54:25;96633.66;;;26.59;77.53
16834;BME280;8533;48.426;10.868;2023-08-20T07:56:52;96640.06;;;26.91;75.06
16834;BME280;8533;48.426;10.868;2023-08-20T07:59:17;96638.34;;;27.11;75.02
16834;BME280;8533;48.426;10.868;2023-08-20T08:01:42;96629.13;;;27.24;74.77
16834;BME280;8533;48.426;10.868;2023-08-20T08:04:08;96640.84;;;27.44;73.24
16834;BME280;8533;48.426;10.868;2023-08-20T08:06:33;96645.53;;;27.47;73.32
16834;BME280;8533;48.426;10.868;2023-08-20T08:09:17;96619.81;;;27.34;71.99
16834;BME280;8533;48.426;10.868;2023-08-20T08:11:43;96648.09;;;27.84;70.80
16834;BME280;8533;48.426;10.868;2023-08-20T08:14:09;96659.69;;;28.00;69.71
16834;BME280;8533;48.426;10.868;2023-08-20T08:16:35;96646.59;;;28.14;67.65
16834;BME280;8533;48.426;10.868;2023-08-20T08:19:01;96658.97;;;28.46;65.85
16834;BME280;8533;48.426;10.868;2023-08-20T08:21:26;96664.97;;;28.56;65.77
16834;BME280;8533;48.426;10.868;2023-08-20T08:23:52;96675.16;;;28.78;63.21
16834;BME280;8533;48.426;10.868;2023-08-20T08:26:17;96651.13;;;28.73;62.00
16834;BME280;8533;48.426;10.868;2023-08-20T08:28:42;96684.53;;;28.84;61.75
16834;BME280;8533;48.426;10.868;2023-08-20T08:31:07;96676.34;;;28.96;63.93
16834;BME280;8533;48.426;10.868;2023-08-20T08:33:33;96677.06;;;28.93;62.43
16834;BME280;8533;48.426;10.868;2023-08-20T08:35:58;96654.97;;;28.72;62.28
16834;BME280;8533;48.426;10.868;2023-08-20T08:38:23;96675.25;;;29.16;62.52
16834;BME280;8533;48.426;10.868;2023-08-20T08:40:49;96672.34;;;29.41;59.54
16834;BME280;8533;48.426;10.868;2023-08-20T08:43:14;96671.72;;;29.67;61.48
16834;BME280;8533;48.426;10.868;2023-08-20T08:45:46;96677.63;;;29.91;59.64
16834;BME280;8533;48.426;10.868;2023-08-20T08:48:14;96674.53;;;30.12;59.06
16834;BME280;8533;48.426;10.868;2023-08-20T08:50:40;96672.03;;;30.23;57.89
16834;BME280;8533;48.426;10.868;2023-08-20T08:53:07;96664.53;;;29.36;57.30
16834;BME280;8533;48.426;10.868;2023-08-20T08:55:33;96670.91;;;29.12;64.71
16834;BME280;8533;48.426;10.868;2023-08-20T08:57:58;96672.97;;;29.34;64.14
16834;BME280;8533;48.426;10.868;2023-08-20T09:00:24;96671.28;;;29.84;58.42
16834;BME280;8533;48.426;10.868;2023-08-20T09:02:49;96671.09;;;29.73;60.03
16834;BME280;8533;48.426;10.868;2023-08-20T09:05:14;96658.50;;;30.00;58.26
16834;BME280;8533;48.426;10.868;2023-08-20T09:07:42;96674.22;;;30.37;53.03
16834;BME280;8533;48.426;10.868;2023-08-20T09:10:08;96662.81;;;30.69;53.52
16834;BME280;8533;48.426;10.868;2023-08-20T09:12:34;96668.25;;;30.73;56.47
16834;BME280;8533;48.426;10.868;2023-08-20T09:15:00;96662.97;;;30.34;56.58
16834;BME280;8533;48.426;10.868;2023-08-20T09:17:26;96668.16;;;30.66;56.14
16834;BME280;8533;48.426;10.868;2023-08-20T09:19:54;96667.09;;;30.97;57.53
16834;BME280;8533;48.426;10.868;2023-08-20T09:22:20;96673.19;;;31.17;56.69
16834;BME280;8533;48.426;10.868;2023-08-20T09:24:52;96474.38;;;29.87;56.63
16834;BME280;8533;48.426;10.868;2023-08-20T09:27:18;96672.53;;;31.53;53.74
16834;BME280;8533;48.426;10.868;2023-08-20T09:29:46;96670.06;;;31.15;55.57
16834;BME280;8533;48.426;10.868;2023-08-20T09:32:19;96673.41;;;31.61;53.67
16834;BME280;8533;48.426;10.868;2023-08-20T09:34:45;96666.81;;;31.92;51.76
16834;BME280;8533;48.426;10.868;2023-08-20T09:37:15;96665.56;;;32.15;50.50
16834;BME280;8533;48.426;10.868;2023-08-20T09:39:41;96631.81;;;32.13;51.24
16834;BME280;8533;48.426;10.868;2023-08-20T09:42:07;96619.41;;;32.08;50.93
16834;BME280;8533;48.426;10.868;2023-08-20T09:44:34;96664.03;;;32.18;49.97
16834;BME280;8533;48.426;10.868;2023-08-20T09:47:05;96658.34;;;31.93;52.86
16834;BME280;8533;48.426;10.868;2023-08-20T09:49:35;96667.97;;;32.24;49.44
16834;BME280;8533;48.426;10.868;2023-08-20T09:52:03;96494.59;;;30.73;48.65
16834;BME280;8533;48.426;10.868;2023-08-20T09:57:14;96642.25;;;31.74;47.70
16834;BME280;8533;48.426;10.868;2023-08-20T09:59:45;96624.81;;;31.68;46.68
16834;BME280;8533;48.426;10.868;2023-08-20T10:02:12;96668.81;;;31.98;46.86
16834;BME280;8533;48.426;10.868;2023-08-20T10:04:39;96650.09;;;32.16;46.94
16834;BME280;8533;48.426;10.868;2023-08-20T10:07:04;96659.38;;;32.59;46.67
16834;BME280;8533;48.426;10.868;2023-08-20T10:09:30;96661.94;;;32.89;48.67
16834;BME280;8533;48.426;10.868;2023-08-20T10:11:56;96663.38;;;32.72;47.94
16834;BME280;8533;48.426;10.868;2023-08-20T10:14:21;96667.22;;;33.22;44.58
16834;BME280;8533;48.426;10.868;2023-08-20T10:16:47;96667.44;;;33.72;44.16
16834;BME280;8533;48.426;10.868;2023-08-20T10:19:15;96663.78;;;32.78;46.42
16834;BME280;8533;48.426;10.868;2023-08-20T10:21:44;96666.09;;;32.76;49.68
16834;BME280;8533;48.426;10.868;2023-08-20T10:24:16;96657.09;;;33.16;46.06
16834;BME280;8533;48.426;10.868;2023-08-20T10:26:41;96668.38;;;33.25;44.27
16834;BME280;8533;48.426;10.868;2023-08-20T10:29:34;96672.06;;;32.95;44.57
16834;BME280;8533;48.426;10.868;2023-08-20T10:31:59;96670.50;;;32.94;47.49
16834;BME280;8533;48.426;10.868;2023-08-20T10:34:35;96661.31;;;33.17;45.95
16834;BME280;8533;48.426;10.868;2023-08-20T10:37:10;96662.75;;;33.62;44.36
16834;BME280;8533;48.426;10.868;2023-08-20T10:39:36;96633.75;;;33.84;41.93
16834;BME280;8533;48.426;10.868;2023-08-20T10:42:08;96665.56;;;33.83;42.35
16834;BME280;8533;48.426;10.868;2023-08-20T10:44:58;96657.16;;;33.23;44.83
16834;BME280;8533;48.426;10.868;2023-08-20T10:47:24;96661.38;;;34.14;43.91
16834;BME280;8533;48.426;10.868;2023-08-20T10:49:52;96655.56;;;34.23;41.47
16834;BME280;8533;48.426;10.868;2023-08-20T10:52:19;96675.81;;;34.36;40.90
16834;BME280;8533;48.426;10.868;2023-08-20T10:54:45;96552.56;;;33.36;42.06
16834;BME280;8533;48.426;10.868;2023-08-20T10:57:10;96662.09;;;33.90;43.54
16834;BME280;8533;48.426;10.868;2023-08-20T10:59:39;96611.66;;;33.85;43.85
16834;BME280;8533;48.426;10.868;2023-08-20T11:02:09;96665.25;;;34.02;41.24
16834;BME280;8533;48.426;10.868;2023-08-20T11:04:38;96656.56;;;33.68;41.93
16834;BME280;8533;48.426;10.868;2023-08-20T11:07:04;96651.16;;;33.72;41.73
16834;BME280;8533;48.426;10.868;2023-08-20T11:09:30;96657.84;;;33.96;39.48
16834;BME280;8533;48.426;10.868;2023-08-20T11:11:56;96658.94;;;33.74;38.88
16834;BME280;8533;48.426;10.868;2023-08-20T11:14:22;96657.66;;;33.46;40.04
16834;BME280;8533;48.426;10.868;2023-08-20T11:16:48;96658.22;;;33.87;41.78
16834;BME280;8533;48.426;10.868;2023-08-20T11:19:18;96662.03;;;33.76;40.96
16834;BME280;8533;48.426;10.868;2023-08-20T11:21:44;96657.31;;;33.62;39.80
16834;BME280;8533;48.426;10.868;2023-08-20T11:24:10;96653.31;;;34.60;39.04
16834;BME280;8533;48.426;10.868;2023-08-20T11:26:38;96649.44;;;34.86;40.03
16834;BME280;8533;48.426;10.868;2023-08-20T11:29:08;96648.25;;;34.87;39.10
16834;BME280;8533;48.426;10.868;2023-08-20T11:31:35;96588.06;;;34.28;38.52
16834;BME280;8533;48.426;10.868;2023-08-20T11:34:02;96647.41;;;34.12;40.13
16834;BME280;8533;48.426;10.868;2023-08-20T11:36:28;96644.16;;;33.67;41.45
16834;BME280;8533;48.426;10.868;2023-08-20T11:38:53;96640.09;;;34.91;39.05
16834;BME280;8533;48.426;10.868;2023-08-20T11:41:19;96641.97;;;34.08;39.37
16834;BME280;8533;48.426;10.868;2023-08-20T11:43:46;96648.28;;;34.76;39.05
16834;BME280;8533;48.426;10.868;2023-08-20T11:46:15;96623.41;;;34.35;39.20
16834;BME280;8533;48.426;10.868;2023-08-20T11:49:01;96642.75;;;35.33;39.17
16834;BME280;8533;48.426;10.868;2023-08-20T11:51:27;96634.66;;;34.80;37.82
16834;BME280;8533;48.426;10.868;2023-08-20T11:53:52;96606.31;;;34.60;37.85
16834;BME280;8533;48.426;10.868;2023-08-20T11:56:17;96633.84;;;34.72;38.84
16834;BME280;8533;48.426;10.868;2023-08-20T11:58:43;96631.44;;;33.86;39.88
16834;BME280;8533;48.426;10.868;2023-08-20T12:01:08;96630.34;;;34.22;39.67
16834;BME280;8533;48.426;10.868;2023-08-20T12:03:34;96633.03;;;35.14;36.04
16834;BME280;8533;48.426;10.868;2023-08-20T12:06:17;96502.16;;;34.91;34.36
16834;BME280;8533;48.426;10.868;2023-08-20T12:08:42;96629.59;;;35.00;36.96
16834;BME280;8533;48.426;10.868;2023-08-20T12:11:08;96621.84;;;34.49;38.49
16834;BME280;8533;48.426;10.868;2023-08-20T12:13:33;96626.47;;;34.87;38.23
16834;BME280;8533;48.426;10.868;2023-08-20T12:15:58;96637.28;;;35.19;37.63
16834;BME280;8533;48.426;10.868;2023-08-20T12:18:23;96624.16;;;35.00;38.97
16834;BME280;8533;48.426;10.868;2023-08-20T12:20:49;96619.91;;;35.97;37.31
16834;BME280;8533;48.426;10.868;2023-08-20T12:23:14;96614.34;;;36.11;36.02
16834;BME280;8533;48.426;10.868;2023-08-20T12:25:39;96617.22;;;36.48;36.01
16834;BME280;8533;48.426;10.868;2023-08-20T12:28:05;96613.81;;;35.71;35.94
16834;BME280;8533;48.426;10.868;2023-08-20T12:30:31;96610.00;;;35.51;35.94
16834;BME280;8533;48.426;10.868;2023-08-20T12:32:57;96613.63;;;35.27;36.88
16834;BME280;8533;48.426;10.868;2023-08-20T12:35:22;96597.28;;;35.12;34.86
16834;BME280;8533;48.426;10.868;2023-08-20T12:37:47;96607.78;;;35.03;35.71
16834;BME280;8533;48.426;10.868;2023-08-20T12:40:13;96606.94;;;35.38;36.28
16834;BME280;8533;48.426;10.868;2023-08-20T12:42:39;96564.38;;;34.18;38.93
16834;BME280;8533;48.426;10.868;2023-08-20T12:45:07;96562.34;;;35.04;37.54
16834;BME280;8533;48.426;10.868;2023-08-20T12:47:34;96605.44;;;35.16;37.07
16834;BME280;8533;48.426;10.868;2023-08-20T12:49:59;96579.88;;;34.92;36.58
16834;BME280;8533;48.426;10.868;2023-08-20T12:52:25;96593.34;;;35.38;36.57
16834;BME280;8533;48.426;10.868;2023-08-20T12:54:50;96597.78;;;34.51;37.58
16834;BME280;8533;48.426;10.868;2023-08-20T12:57:15;96599.31;;;34.48;38.54
16834;BME280;8533;48.426;10.868;2023-08-20T12:59:40;96598.13;;;34.88;38.02
16834;BME280;8533;48.426;10.868;2023-08-20T13:02:06;96584.47;;;35.24;37.22